Time;durP1;ratioP1;P1;durP2;ratioP2;P2;SDS_P1;SDS_P2;PMS_P1;PMS_P2;Temp;Humidity;BMP_temperature;BMP_pressure;BME280_temperature;BME280_humidity;BME280_pressure;Samples;Min_cycle;Max_cycle;Signal;HPM_P1;HPM_P2
2023/04/20 00:01:37;;;;;;;9.37;8.87;;;10.50;18.00;;;;;;4999297;28;20470;-58
2023/04/20 00:04:03;;;;;;;9.83;9.23;;;10.60;17.90;;;;;;5000718;28;20685;-57
2023/04/20 00:06:31;;;;;;;9.60;9.10;;;10.60;17.80;;;;;;4999566;28;20173;-57
2023/04/20 00:08:57;;;;;;;9.97;9.47;;;10.60;18.00;;;;;;4983738;28;20416;-57
2023/04/20 00:11:23;;;;;;;9.73;9.23;;;10.60;17.80;;;;;;5001347;28;21179;-57
2023/04/20 00:13:49;;;;;;;10.17;9.67;;;10.60;17.60;;;;;;4998546;28;20420;-57
2023/04/20 00:16:15;;;;;;;9.40;8.90;;;10.60;17.70;;;;;;4998622;28;20178;-57
2023/04/20 00:18:40;;;;;;;9.53;8.77;;;10.70;17.80;;;;;;5000592;28;20236;-58
2023/04/20 00:21:06;;;;;;;9.77;9.17;;;10.70;17.60;;;;;;4998713;28;20185;-58
2023/04/20 00:23:32;;;;;;;9.03;8.53;;;10.70;17.60;;;;;;4999384;28;20196;-58
2023/04/20 00:25:57;;;;;;;9.13;8.63;;;10.70;17.80;;;;;;5000934;28;20474;-62
2023/04/20 00:28:23;;;;;;;9.93;9.33;;;10.70;17.80;;;;;;5006984;28;20545;-57
2023/04/20 00:30:49;;;;;;;10.13;9.53;;;10.70;17.80;;;;;;5002079;28;20307;-58
2023/04/20 00:33:14;;;;;;;9.37;8.87;;;10.70;17.70;;;;;;4986377;28;20272;-62
2023/04/20 00:35:40;;;;;;;9.10;8.50;;;10.70;17.90;;;;;;5005594;28;20189;-63
2023/04/20 00:38:05;;;;;;;9.90;9.30;;;10.70;17.70;;;;;;5004191;28;20272;-61
2023/04/20 00:40:32;;;;;;;9.97;9.30;;;10.70;18.00;;;;;;5002428;28;20192;-61
2023/04/20 00:43:08;;;;;;;9.80;9.30;;;10.70;18.00;;;;;;5004235;28;20192;-61
2023/04/20 00:45:34;;;;;;;10.30;9.70;;;10.70;17.70;;;;;;5003266;28;20419;-62
2023/04/20 00:48:00;;;;;;;8.83;8.43;;;10.70;17.70;;;;;;5003584;28;21011;-62
2023/04/20 00:50:26;;;;;;;10.53;9.50;;;10.70;17.80;;;;;;5002607;28;20223;-61
2023/04/20 00:52:51;;;;;;;9.80;9.23;;;10.80;17.30;;;;;;5004024;28;20416;-62
2023/04/20 00:55:19;;;;;;;9.63;9.13;;;10.40;18.40;;;;;;5003405;28;20181;-61
2023/04/20 00:57:44;;;;;;;10.10;9.50;;;10.30;18.90;;;;;;5003615;28;20173;-61
2023/04/20 01:00:10;;;;;;;10.17;9.67;;;10.40;18.60;;;;;;5003247;28;20424;-61
2023/04/20 01:02:36;;;;;;;9.23;8.73;;;10.40;18.60;;;;;;5001314;28;20687;-60
2023/04/20 01:05:02;;;;;;;10.60;9.90;;;10.50;18.20;;;;;;5003172;28;20522;-57
2023/04/20 01:07:28;;;;;;;9.83;9.23;;;10.60;18.10;;;;;;5000412;28;20185;-57
2023/04/20 01:09:55;;;;;;;9.47;9.00;;;10.50;18.40;;;;;;5000836;28;20542;-58
2023/04/20 01:12:20;;;;;;;9.90;9.40;;;10.50;18.20;;;;;;5000228;28;20478;-58
2023/04/20 01:14:46;;;;;;;10.07;9.43;;;10.50;18.00;;;;;;5001794;28;20921;-59
2023/04/20 01:17:13;;;;;;;10.23;9.53;;;10.50;18.00;;;;;;4999776;28;20210;-58
2023/04/20 01:19:40;;;;;;;9.80;9.20;;;10.50;18.00;;;;;;5000457;28;20557;-58
2023/04/20 01:22:07;;;;;;;10.33;9.73;;;10.40;18.00;;;;;;5001336;28;21035;-58
2023/04/20 01:24:32;;;;;;;9.50;8.90;;;10.40;18.00;;;;;;5001993;28;20432;-57
2023/04/20 01:27:00;;;;;;;10.17;9.57;;;10.30;18.20;;;;;;4998763;28;20828;-58
2023/04/20 01:29:25;;;;;;;10.80;10.20;;;10.30;18.20;;;;;;5001637;28;20710;-57
2023/04/20 01:31:51;;;;;;;10.03;9.63;;;10.30;18.30;;;;;;5002297;28;20522;-58
2023/04/20 01:34:17;;;;;;;10.13;9.63;;;10.30;18.20;;;;;;5002218;28;20216;-58
2023/04/20 01:36:44;;;;;;;10.33;9.80;;;10.30;18.20;;;;;;4999726;28;20177;-58
2023/04/20 01:39:10;;;;;;;11.30;10.80;;;10.30;18.20;;;;;;5000101;28;20192;-58
2023/04/20 01:41:35;;;;;;;10.67;10.13;;;10.30;18.20;;;;;;4999776;28;20515;-57
2023/04/20 01:44:01;;;;;;;10.63;9.93;;;10.30;18.30;;;;;;5000054;28;20520;-57
2023/04/20 01:46:27;;;;;;;10.70;10.00;;;10.30;18.60;;;;;;5000987;28;20231;-57
2023/04/20 01:48:52;;;;;;;10.33;9.83;;;10.30;18.70;;;;;;5000852;28;20177;-61
2023/04/20 01:51:18;;;;;;;11.07;10.47;;;9.80;20.60;;;;;;5000818;28;20216;-62
2023/04/20 01:53:43;;;;;;;10.03;9.43;;;9.30;21.80;;;;;;5002652;28;20521;-57
2023/04/20 01:56:09;;;;;;;10.57;10.07;;;9.20;22.30;;;;;;5002055;28;20646;-57
2023/04/20 01:58:35;;;;;;;10.40;9.90;;;9.30;22.00;;;;;;5002727;28;20219;-57
2023/04/20 02:01:01;;;;;;;10.30;9.73;;;9.20;21.50;;;;;;5000293;28;20192;-57
2023/04/20 02:03:27;;;;;;;11.30;10.70;;;9.20;22.40;;;;;;4999888;28;20228;-58
2023/04/20 02:05:53;;;;;;;10.17;9.67;;;9.30;22.00;;;;;;4999909;28;20416;-58
2023/04/20 02:08:19;;;;;;;11.07;10.47;;;9.50;21.20;;;;;;4999687;28;20463;-58
2023/04/20 02:10:45;;;;;;;11.90;10.83;;;9.40;21.50;;;;;;4999356;28;20209;-57
2023/04/20 02:13:10;;;;;;;10.63;10.13;;;8.90;23.20;;;;;;4999202;28;20428;-58
2023/04/20 02:15:36;;;;;;;10.83;10.23;;;9.00;22.80;;;;;;4999200;28;20909;-57
2023/04/20 02:18:02;;;;;;;10.23;9.70;;;9.20;22.20;;;;;;4999643;28;20181;-57
2023/04/20 02:20:28;;;;;;;11.60;10.90;;;9.40;21.80;;;;;;4999451;28;20884;-57
2023/04/20 02:22:54;;;;;;;10.37;9.90;;;9.30;21.40;;;;;;4998628;28;20882;-57
2023/04/20 02:25:20;;;;;;;10.70;10.20;;;9.00;22.40;;;;;;5000963;28;20681;-57
2023/04/20 02:27:45;;;;;;;10.33;9.83;;;8.50;23.10;;;;;;4999769;28;20185;-57
2023/04/20 02:30:11;;;;;;;10.47;9.87;;;8.60;23.40;;;;;;4998899;28;20457;-58
2023/04/20 02:32:37;;;;;;;10.67;10.17;;;8.80;22.70;;;;;;4998356;28;20716;-58
2023/04/20 02:35:03;;;;;;;9.97;9.57;;;9.00;22.20;;;;;;5001164;28;20451;-58
2023/04/20 02:37:30;;;;;;;11.17;10.47;;;9.10;22.00;;;;;;4999286;28;20182;-58
2023/04/20 02:39:55;;;;;;;10.83;10.23;;;9.30;21.70;;;;;;5000080;28;20993;-58
2023/04/20 02:42:21;;;;;;;10.93;10.33;;;9.40;21.30;;;;;;5000241;28;20531;-58
2023/04/20 02:44:46;;;;;;;11.17;10.50;;;9.50;21.20;;;;;;4999445;28;20181;-58
2023/04/20 02:47:12;;;;;;;10.60;10.10;;;9.50;20.80;;;;;;4998781;28;20268;-58
2023/04/20 02:49:38;;;;;;;11.17;10.67;;;8.90;23.10;;;;;;4999953;28;20205;-58
2023/04/20 02:52:04;;;;;;;11.37;10.63;;;8.50;23.80;;;;;;4997391;28;20178;-58
2023/04/20 02:54:29;;;;;;;11.87;11.17;;;8.10;24.90;;;;;;5001372;28;20228;-58
2023/04/20 02:56:55;;;;;;;11.80;11.20;;;7.80;25.40;;;;;;4998501;28;20444;-58
2023/04/20 02:59:21;;;;;;;11.47;10.77;;;7.70;25.90;;;;;;4982931;28;20190;-58
2023/04/20 03:01:46;;;;;;;11.53;10.93;;;7.90;25.20;;;;;;5000802;28;20188;-58
2023/04/20 03:04:12;;;;;;;12.10;11.33;;;8.00;25.00;;;;;;5000176;28;20606;-58
2023/04/20 03:06:39;;;;;;;11.90;11.20;;;8.10;25.50;;;;;;4997971;28;20263;-58
2023/04/20 03:09:07;;;;;;;12.50;11.67;;;8.10;25.20;;;;;;4997501;28;20435;-58
2023/04/20 03:11:33;;;;;;;11.47;10.87;;;8.00;25.50;;;;;;4998353;28;20975;-58
2023/04/20 03:13:59;;;;;;;12.60;11.90;;;8.10;25.70;;;;;;4997387;28;20416;-58
2023/04/20 03:16:25;;;;;;;11.07;10.37;;;8.40;25.10;;;;;;4998645;28;20185;-58
2023/04/20 03:18:50;;;;;;;11.43;10.83;;;8.60;24.50;;;;;;4998182;28;20420;-58
2023/04/20 03:21:16;;;;;;;11.43;10.83;;;8.80;24.00;;;;;;4999357;28;20181;-61
2023/04/20 03:23:41;;;;;;;11.70;10.80;;;8.90;23.20;;;;;;5000534;28;20185;-61
2023/04/20 03:26:07;;;;;;;11.93;11.23;;;9.10;23.40;;;;;;4999975;28;20224;-62
2023/04/20 03:28:32;;;;;;;11.13;10.53;;;9.10;23.40;;;;;;5000018;28;20271;-62
2023/04/20 03:30:59;;;;;;;11.17;10.50;;;9.20;23.40;;;;;;5000618;28;20312;-62
2023/04/20 03:33:26;;;;;;;11.90;11.20;;;9.30;23.10;;;;;;4999272;28;20656;-62
2023/04/20 03:35:52;;;;;;;11.47;10.77;;;9.40;22.80;;;;;;5000187;28;20486;-62
2023/04/20 03:38:18;;;;;;;13.70;12.90;;;9.50;22.40;;;;;;5002517;28;20417;-62
2023/04/20 03:40:43;;;;;;;11.17;10.63;;;9.60;21.70;;;;;;5002300;28;20181;-61
2023/04/20 03:43:11;;;;;;;11.90;11.20;;;9.60;21.70;;;;;;5002622;28;20196;-62
2023/04/20 03:45:36;;;;;;;11.40;10.60;;;9.70;21.60;;;;;;5002937;28;20284;-62
2023/04/20 03:48:02;;;;;;;12.77;11.80;;;9.80;21.70;;;;;;5002906;28;21398;-61
2023/04/20 03:50:28;;;;;;;12.30;11.50;;;9.80;21.50;;;;;;5003870;28;20205;-62
2023/04/20 03:52:53;;;;;;;11.97;10.97;;;9.90;21.20;;;;;;5002697;28;20545;-61
2023/04/20 03:55:19;;;;;;;11.97;11.33;;;10.00;20.50;;;;;;5005630;28;20548;-61
2023/04/20 03:57:44;;;;;;;11.60;10.97;;;10.00;20.20;;;;;;5005582;28;20178;-61
2023/04/20 04:00:11;;;;;;;10.87;10.27;;;10.00;20.20;;;;;;5004879;28;20185;-61
2023/04/20 04:02:37;;;;;;;12.60;11.50;;;9.90;20.70;;;;;;5005517;28;20193;-61
2023/04/20 04:05:02;;;;;;;11.40;10.80;;;9.90;20.60;;;;;;5007722;28;20511;-57
2023/04/20 04:07:28;;;;;;;12.53;11.70;;;9.90;20.50;;;;;;5006710;28;20192;-57
2023/04/20 04:09:54;;;;;;;12.60;11.80;;;9.70;20.50;;;;;;5006193;28;20209;-57
2023/04/20 04:12:19;;;;;;;11.87;11.17;;;9.70;20.60;;;;;;5006953;28;20184;-58
2023/04/20 04:14:45;;;;;;;11.23;10.63;;;9.60;20.80;;;;;;5005868;28;20177;-58
2023/04/20 04:17:13;;;;;;;11.20;10.60;;;9.60;20.90;;;;;;5008661;28;20189;-58
2023/04/20 04:19:38;;;;;;;13.33;12.43;;;9.60;20.70;;;;;;5011007;28;20185;-58
2023/04/20 04:22:04;;;;;;;12.17;11.50;;;9.60;20.90;;;;;;5008376;28;20923;-58
2023/04/20 04:24:32;;;;;;;12.60;11.60;;;9.60;20.90;;;;;;5010212;28;20177;-58
2023/04/20 04:26:58;;;;;;;11.73;11.13;;;9.40;21.20;;;;;;5010066;28;20217;-58
2023/04/20 04:29:26;;;;;;;11.67;11.17;;;9.40;21.50;;;;;;5009382;28;20961;-57
2023/04/20 04:31:53;;;;;;;12.87;12.07;;;9.30;21.90;;;;;;5009570;28;20435;-61
2023/04/20 04:34:19;;;;;;;13.40;12.60;;;9.30;21.50;;;;;;5010315;28;20420;-62
2023/04/20 04:36:45;;;;;;;12.50;11.87;;;9.00;22.50;;;;;;5010857;28;20421;-62
2023/04/20 04:39:11;;;;;;;13.30;12.50;;;8.80;23.20;;;;;;5010780;28;20412;-61
2023/04/20 04:41:37;;;;;;;11.90;11.20;;;8.80;22.80;;;;;;5010310;28;20185;-62
2023/04/20 04:44:04;;;;;;;12.20;11.40;;;8.90;22.40;;;;;;5009208;28;20427;-57
2023/04/20 04:46:31;;;;;;;12.07;11.37;;;9.00;22.00;;;;;;5010767;28;20430;-57
2023/04/20 04:48:59;;;;;;;12.27;11.60;;;9.10;22.20;;;;;;5010720;28;20421;-58
2023/04/20 04:51:25;;;;;;;13.30;12.30;;;9.10;22.00;;;;;;5009456;28;20460;-58
2023/04/20 04:53:51;;;;;;;12.30;11.70;;;9.10;22.10;;;;;;5009944;28;20419;-58
2023/04/20 04:56:19;;;;;;;12.60;11.80;;;9.10;21.90;;;;;;5010529;28;20511;-62
2023/04/20 04:58:45;;;;;;;12.50;11.80;;;9.10;21.80;;;;;;5010539;28;20177;-62
2023/04/20 05:01:11;;;;;;;11.53;10.93;;;9.10;21.80;;;;;;5009948;28;20841;-61
2023/04/20 05:03:36;;;;;;;12.70;12.00;;;9.00;22.00;;;;;;5009866;28;20197;-62
2023/04/20 05:06:02;;;;;;;12.63;12.00;;;9.00;22.00;;;;;;5009839;28;20416;-62
2023/04/20 05:08:28;;;;;;;11.97;11.27;;;9.00;22.00;;;;;;5012078;28;20181;-62
2023/04/20 05:10:53;;;;;;;12.57;11.67;;;8.90;21.90;;;;;;5011796;28;20254;-62
2023/04/20 05:13:19;;;;;;;12.40;11.40;;;9.00;22.20;;;;;;5013417;28;20642;-61
2023/04/20 05:15:44;;;;;;;12.97;12.27;;;8.90;22.20;;;;;;5013992;28;20178;-62
2023/04/20 05:18:10;;;;;;;13.60;12.90;;;8.90;22.40;;;;;;5013813;28;20184;-58
2023/04/20 05:20:36;;;;;;;13.87;13.00;;;9.00;22.40;;;;;;5013817;28;20231;-58
2023/04/20 05:23:01;;;;;;;13.50;12.50;;;9.00;22.20;;;;;;5013091;28;20197;-58
2023/04/20 05:25:27;;;;;;;13.90;13.10;;;9.00;22.30;;;;;;5013761;28;20181;-58
2023/04/20 05:27:53;;;;;;;12.90;12.00;;;9.10;22.60;;;;;;5013632;28;20177;-58
2023/04/20 05:30:18;;;;;;;14.27;13.37;;;9.10;22.30;;;;;;5013619;28;20216;-58
2023/04/20 05:32:44;;;;;;;14.00;13.30;;;8.90;22.70;;;;;;5013141;28;20184;-57
2023/04/20 05:35:09;;;;;;;13.30;12.50;;;8.90;22.60;;;;;;5013429;28;20177;-58
2023/04/20 05:37:35;;;;;;;13.50;12.70;;;8.90;22.40;;;;;;5013625;28;20379;-58
2023/04/20 05:40:01;;;;;;;13.53;12.73;;;9.00;22.30;;;;;;5006143;28;20176;-58
2023/04/20 05:42:26;;;;;;;13.47;12.77;;;9.10;22.20;;;;;;5008864;28;20273;-58
2023/04/20 05:44:52;;;;;;;12.30;11.60;;;9.10;22.20;;;;;;5009290;28;20177;-58
2023/04/20 05:47:17;;;;;;;14.30;13.23;;;9.10;22.30;;;;;;5000799;28;20209;-62
2023/04/20 05:49:44;;;;;;;13.73;12.77;;;9.10;22.60;;;;;;5012405;28;20200;-62
2023/04/20 05:52:10;;;;;;;12.83;12.10;;;9.10;22.30;;;;;;5011395;28;20182;-61
2023/04/20 05:54:36;;;;;;;13.27;12.47;;;9.20;22.40;;;;;;5012770;28;20779;-63
2023/04/20 05:57:03;;;;;;;12.63;11.80;;;9.20;22.40;;;;;;5013008;28;20177;-62
2023/04/20 05:59:29;;;;;;;12.03;11.33;;;9.20;22.40;;;;;;5010946;28;20594;-61
2023/04/20 06:01:55;;;;;;;12.20;11.60;;;9.10;22.30;;;;;;5008433;28;20432;-61
2023/04/20 06:04:21;;;;;;;13.03;12.10;;;9.20;22.40;;;;;;5011871;28;20811;-62
2023/04/20 06:06:46;;;;;;;13.27;12.50;;;9.20;22.00;;;;;;5011367;28;20176;-61
2023/04/20 06:09:12;;;;;;;13.73;13.03;;;9.20;22.20;;;;;;5012058;28;20181;-61
2023/04/20 06:11:37;;;;;;;13.53;12.63;;;9.30;22.00;;;;;;5011916;28;20667;-61
2023/04/20 06:14:03;;;;;;;14.17;13.37;;;9.30;21.90;;;;;;5012628;28;20184;-61
2023/04/20 06:16:29;;;;;;;14.90;13.97;;;9.20;22.30;;;;;;5011524;28;20531;-63
2023/04/20 06:18:54;;;;;;;13.70;12.97;;;9.00;23.20;;;;;;5010636;28;20181;-62
2023/04/20 06:21:20;;;;;;;13.53;12.60;;;9.00;23.00;;;;;;5010267;28;20188;-59
2023/04/20 06:23:45;;;;;;;14.67;13.70;;;9.00;23.30;;;;;;5011419;28;20188;-57
2023/04/20 06:26:11;;;;;;;14.93;14.13;;;8.90;23.20;;;;;;5012494;28;20653;-57
2023/04/20 06:28:37;;;;;;;14.60;13.70;;;8.60;24.00;;;;;;5012730;28;20188;-57
2023/04/20 06:31:03;;;;;;;15.90;14.50;;;8.60;23.70;;;;;;5012405;28;20204;-62
2023/04/20 06:33:29;;;;;;;15.17;14.17;;;8.70;23.60;;;;;;5012323;28;20470;-62
2023/04/20 06:35:55;;;;;;;13.93;13.23;;;8.80;23.30;;;;;;5012474;28;20423;-61
2023/04/20 06:38:22;;;;;;;14.83;13.93;;;9.00;23.30;;;;;;5012284;28;20413;-61
2023/04/20 06:40:48;;;;;;;14.90;13.87;;;8.70;23.60;;;;;;5012313;28;20181;-61
2023/04/20 06:43:14;;;;;;;15.80;14.70;;;8.60;24.40;;;;;;5011776;28;21119;-62
2023/04/20 06:45:39;;;;;;;14.13;13.33;;;8.70;24.40;;;;;;5012214;28;20456;-61
2023/04/20 06:48:05;;;;;;;14.70;13.60;;;8.90;23.70;;;;;;5012087;28;20181;-62
2023/04/20 06:50:31;;;;;;;13.73;12.93;;;9.00;23.30;;;;;;5011830;28;20212;-61
2023/04/20 06:52:57;;;;;;;15.07;14.07;;;9.00;23.70;;;;;;5010971;28;20420;-62
2023/04/20 06:55:22;;;;;;;16.27;15.17;;;9.10;23.40;;;;;;5013286;28;20188;-62
2023/04/20 06:57:48;;;;;;;15.17;14.27;;;9.20;23.40;;;;;;5011928;28;20177;-62
2023/04/20 07:00:14;;;;;;;14.10;13.20;;;9.20;23.40;;;;;;5012003;28;20204;-60
2023/04/20 07:02:46;;;;;;;16.30;15.20;;;9.30;23.40;;;;;;5011333;28;20221;-61
2023/04/20 07:05:13;;;;;;;14.80;14.00;;;9.30;23.50;;;;;;5011795;28;21002;-61
2023/04/20 07:07:39;;;;;;;16.23;15.33;;;9.20;23.90;;;;;;5011871;28;20916;-61
2023/04/20 07:10:10;;;;;;;16.57;15.57;;;9.30;24.50;;;;;;5011548;28;20452;-62
2023/04/20 07:12:37;;;;;;;16.17;15.07;;;9.30;25.10;;;;;;5010627;28;20555;-62
2023/04/20 07:15:04;;;;;;;16.30;15.20;;;9.30;24.20;;;;;;5011182;28;20427;-62
2023/04/20 07:17:30;;;;;;;15.10;14.20;;;9.40;26.40;;;;;;5011462;28;20413;-62
2023/04/20 07:19:57;;;;;;;14.87;13.97;;;9.40;24.60;;;;;;5012030;28;20428;-61
2023/04/20 07:22:24;;;;;;;15.70;14.73;;;9.40;24.20;;;;;;5011199;28;20990;-62
2023/04/20 07:24:50;;;;;;;15.87;14.97;;;9.50;23.60;;;;;;5011531;28;20432;-61
2023/04/20 07:27:16;;;;;;;14.53;13.73;;;9.50;23.60;;;;;;5011423;28;20422;-61
2023/04/20 07:29:42;;;;;;;15.20;13.97;;;9.50;24.10;;;;;;5010806;28;20415;-60
2023/04/20 07:32:08;;;;;;;15.47;14.57;;;9.50;23.60;;;;;;5010818;28;20850;-57
2023/04/20 07:34:34;;;;;;;14.73;13.93;;;9.60;23.70;;;;;;5010382;28;20413;-57
2023/04/20 07:36:59;;;;;;;15.87;14.87;;;9.60;23.70;;;;;;5011318;28;20276;-57
2023/04/20 07:39:27;;;;;;;16.50;15.30;;;9.60;23.70;;;;;;5011455;28;20256;-58
2023/04/20 07:41:53;;;;;;;16.10;15.20;;;9.70;23.70;;;;;;5010599;28;20201;-57
2023/04/20 07:44:19;;;;;;;15.57;14.63;;;9.90;23.50;;;;;;5011346;28;20444;-57
2023/04/20 07:46:44;;;;;;;15.80;14.77;;;9.90;23.40;;;;;;5011244;28;20788;-57
2023/04/20 07:49:10;;;;;;;18.77;17.57;;;9.70;23.70;;;;;;5011115;28;20193;-57
2023/04/20 07:51:35;;;;;;;15.23;14.30;;;9.70;23.70;;;;;;5010611;28;20213;-60
2023/04/20 07:54:01;;;;;;;14.47;13.57;;;9.50;23.60;;;;;;5011189;28;20208;-61
2023/04/20 07:56:27;;;;;;;15.97;14.77;;;9.40;24.30;;;;;;5011232;28;20173;-61
2023/04/20 07:58:52;;;;;;;16.03;15.03;;;9.30;24.70;;;;;;5011141;28;20178;-61
2023/04/20 08:01:23;;;;;;;16.80;15.80;;;9.30;24.70;;;;;;5010688;28;20181;-61
2023/04/20 08:03:48;;;;;;;15.50;14.50;;;9.50;24.90;;;;;;5006045;28;20570;-61
2023/04/20 08:06:14;;;;;;;14.70;13.90;;;9.60;24.00;;;;;;5007742;28;20483;-61
2023/04/20 08:08:40;;;;;;;16.50;15.40;;;9.70;23.70;;;;;;5007811;28;20182;-61
2023/04/20 08:11:07;;;;;;;15.90;14.50;;;9.90;23.90;;;;;;5007345;28;20206;-62
2023/04/20 08:13:32;;;;;;;15.13;14.00;;;9.90;23.80;;;;;;5007727;28;20593;-61
2023/04/20 08:15:58;;;;;;;14.60;13.60;;;10.00;22.90;;;;;;5007252;28;20560;-62
2023/04/20 08:18:24;;;;;;;14.60;13.67;;;9.90;23.90;;;;;;5006811;28;20188;-61
2023/04/20 08:20:50;;;;;;;14.57;13.83;;;10.00;23.20;;;;;;5007731;28;20425;-62
2023/04/20 08:23:16;;;;;;;14.97;14.07;;;10.10;23.10;;;;;;5007145;28;20967;-61
2023/04/20 08:25:41;;;;;;;15.40;14.50;;;10.20;22.60;;;;;;5007757;28;20182;-62
2023/04/20 08:28:07;;;;;;;15.00;13.90;;;10.30;22.40;;;;;;5007756;28;20429;-61
2023/04/20 08:30:33;;;;;;;15.80;14.80;;;10.30;22.20;;;;;;5007783;28;20214;-62
2023/04/20 08:32:59;;;;;;;15.67;14.70;;;10.10;23.00;;;;;;5006738;28;20189;-61
2023/04/20 08:35:24;;;;;;;16.20;15.20;;;10.10;23.30;;;;;;5006911;28;20265;-62
2023/04/20 08:37:50;;;;;;;17.33;16.03;;;9.90;23.90;;;;;;4991274;28;20182;-60
2023/04/20 08:40:19;;;;;;;16.03;15.03;;;9.80;24.30;;;;;;5007499;28;20190;-61
2023/04/20 08:42:45;;;;;;;15.00;14.17;;;9.80;24.60;;;;;;5007058;28;20425;-61
2023/04/20 08:45:12;;;;;;;15.03;14.23;;;9.70;25.80;;;;;;5007669;28;20904;-61
2023/04/20 08:47:38;;;;;;;14.80;13.90;;;9.60;25.70;;;;;;5010977;28;20417;-61
2023/04/20 08:50:04;;;;;;;15.07;14.17;;;9.40;26.50;;;;;;5010874;28;20895;-61
2023/04/20 08:52:31;;;;;;;14.90;14.00;;;9.50;27.30;;;;;;5010463;28;20413;-61
2023/04/20 08:54:57;;;;;;;15.67;14.67;;;9.60;26.40;;;;;;5010898;28;20432;-61
2023/04/20 08:57:22;;;;;;;15.70;14.70;;;9.70;26.70;;;;;;5010902;28;20425;-61
2023/04/20 08:59:48;;;;;;;16.37;15.00;;;9.80;26.20;;;;;;5012757;28;20280;-60
2023/04/20 09:02:14;;;;;;;15.00;14.00;;;10.00;25.10;;;;;;5012999;28;20177;-60
2023/04/20 09:04:40;;;;;;;15.77;14.67;;;10.00;25.20;;;;;;5013229;28;20192;-61
2023/04/20 09:07:06;;;;;;;15.20;14.03;;;10.10;24.80;;;;;;5013662;28;20420;-61
2023/04/20 09:09:32;;;;;;;14.40;13.47;;;10.20;24.40;;;;;;5013043;28;20184;-61
2023/04/20 09:12:06;;;;;;;15.60;14.70;;;10.30;24.80;;;;;;5013118;28;20421;-60
2023/04/20 09:14:47;;;;;;;15.53;14.63;;;10.30;25.50;;;;;;5011265;28;20642;-61
2023/04/20 09:17:14;;;;;;;15.07;14.17;;;10.00;26.40;;;;;;5013746;28;20844;-61
2023/04/20 09:19:43;;;;;;;14.43;13.27;;;10.10;25.20;;;;;;5009297;28;20424;-60
2023/04/20 09:22:09;;;;;;;13.20;12.47;;;10.20;24.50;;;;;;5027271;28;20767;-61
2023/04/20 09:24:39;;;;;;;15.03;13.53;;;10.20;24.40;;;;;;5013040;28;20424;-61
2023/04/20 09:27:15;;;;;;;14.40;13.60;;;10.30;24.70;;;;;;5012515;28;20225;-61
2023/04/20 09:29:41;;;;;;;14.20;13.20;;;10.40;24.50;;;;;;5011927;28;20419;-61
2023/04/20 09:32:07;;;;;;;14.10;13.27;;;10.40;24.00;;;;;;5010698;28;20920;-61
2023/04/20 09:34:43;;;;;;;13.50;12.60;;;10.50;25.40;;;;;;5011805;28;20189;-61
2023/04/20 09:37:12;;;;;;;14.17;13.27;;;10.60;24.70;;;;;;5011368;28;20553;-62
2023/04/20 09:39:41;;;;;;;15.60;14.60;;;10.30;25.00;;;;;;5012394;28;20455;-62
2023/04/20 09:42:11;;;;;;;14.20;13.40;;;10.10;26.50;;;;;;5012251;28;20759;-61
2023/04/20 09:44:38;;;;;;;15.23;14.23;;;10.10;25.80;;;;;;5013457;28;20412;-62
2023/04/20 09:47:04;;;;;;;15.50;14.10;;;10.00;26.20;;;;;;5013172;28;20428;-61
2023/04/20 09:49:31;;;;;;;13.70;12.70;;;10.10;25.30;;;;;;5013305;28;20465;-61
2023/04/20 09:52:00;;;;;;;13.53;12.70;;;10.20;24.80;;;;;;5012514;28;20486;-61
2023/04/20 09:54:27;;;;;;;12.90;12.20;;;10.20;24.70;;;;;;5013171;28;20416;-61
2023/04/20 09:56:53;;;;;;;14.60;13.80;;;10.20;24.50;;;;;;5012974;28;20412;-62
2023/04/20 09:59:20;;;;;;;14.93;14.03;;;10.20;24.80;;;;;;5013181;28;20506;-61
2023/04/20 10:01:46;;;;;;;15.17;14.20;;;10.20;25.00;;;;;;5012542;28;20431;-61
2023/04/20 10:04:13;;;;;;;14.80;14.00;;;10.00;25.30;;;;;;5012923;28;20526;-62
2023/04/20 10:06:50;;;;;;;14.70;13.63;;;10.00;25.90;;;;;;5012936;28;20436;-62
2023/04/20 10:09:21;;;;;;;16.13;15.13;;;10.10;25.50;;;;;;5012972;28;20470;-61
2023/04/20 10:11:46;;;;;;;15.40;14.40;;;10.10;25.60;;;;;;5011739;28;20552;-62
2023/04/20 10:14:23;;;;;;;15.07;14.13;;;10.20;25.50;;;;;;5012756;28;20491;-61
2023/04/20 10:17:07;;;;;;;15.90;14.80;;;10.20;25.40;;;;;;5014004;28;20180;-61
2023/04/20 10:19:43;;;;;;;15.33;14.33;;;10.30;25.20;;;;;;5012767;28;20419;-61
2023/04/20 10:22:11;;;;;;;14.90;13.90;;;10.30;25.50;;;;;;5012045;28;20519;-61
2023/04/20 10:24:37;;;;;;;14.67;13.77;;;10.30;25.70;;;;;;5012751;28;20424;-61
2023/04/20 10:27:14;;;;;;;16.07;14.97;;;10.10;25.50;;;;;;5012577;28;20792;-61
2023/04/20 10:29:40;;;;;;;17.70;16.50;;;10.00;26.60;;;;;;5012423;28;20420;-62
2023/04/20 10:32:05;;;;;;;16.90;15.90;;;9.90;28.50;;;;;;5011929;28;20780;-62
2023/04/20 10:34:35;;;;;;;15.80;14.90;;;9.90;29.10;;;;;;5013716;28;20170;-62
2023/04/20 10:37:12;;;;;;;16.63;15.73;;;9.90;28.70;;;;;;5012269;28;20260;-61
2023/04/20 10:39:45;;;;;;;15.93;15.00;;;9.90;29.10;;;;;;5011674;28;20949;-57
2023/04/20 10:42:12;;;;;;;15.53;14.43;;;9.80;30.00;;;;;;5011596;28;20423;-58
2023/04/20 10:44:51;;;;;;;17.53;16.20;;;9.90;29.70;;;;;;5012551;28;20502;-58
2023/04/20 10:47:25;;;;;;;15.30;14.33;;;10.00;29.60;;;;;;5012793;28;20768;-58
2023/04/20 10:49:51;;;;;;;15.53;14.53;;;10.00;29.10;;;;;;5012125;28;20862;-57
2023/04/20 10:52:16;;;;;;;15.63;14.63;;;10.00;29.80;;;;;;5011415;28;20512;-57
2023/04/20 10:54:42;;;;;;;14.90;14.10;;;10.10;30.00;;;;;;5012130;28;20177;-58
2023/04/20 10:57:14;;;;;;;17.13;15.93;;;10.10;30.00;;;;;;5011946;28;20216;-58
2023/04/20 10:59:40;;;;;;;16.87;15.77;;;10.10;31.60;;;;;;5012117;28;20765;-59
2023/04/20 11:02:09;;;;;;;17.20;16.10;;;10.10;32.60;;;;;;5011256;28;20423;-58
2023/04/20 11:04:36;;;;;;;15.17;14.27;;;10.10;33.70;;;;;;5011552;28;20833;-57
2023/04/20 11:07:08;;;;;;;12.87;12.07;;;10.00;33.00;;;;;;5012012;28;20452;-58
2023/04/20 11:09:37;;;;;;;14.40;13.60;;;9.80;32.30;;;;;;5011555;28;20439;-57
2023/04/20 11:12:13;;;;;;;14.57;13.67;;;9.80;33.30;;;;;;5010706;28;20431;-58
2023/04/20 11:14:50;;;;;;;13.23;12.57;;;9.70;34.00;;;;;;5011397;28;20428;-58
2023/04/20 11:17:16;;;;;;;14.50;13.70;;;9.80;34.00;;;;;;4996737;28;20441;-58
2023/04/20 11:19:42;;;;;;;14.00;13.30;;;9.70;33.20;;;;;;5010651;28;20788;-57
2023/04/20 11:22:08;;;;;;;14.10;13.20;;;9.70;34.00;;;;;;5010296;28;20213;-56
2023/04/20 11:24:34;;;;;;;15.77;14.87;;;9.70;33.50;;;;;;5011334;28;20558;-57
2023/04/20 11:27:01;;;;;;;16.17;15.27;;;9.80;34.70;;;;;;5010892;28;21022;-57
2023/04/20 11:29:29;;;;;;;14.20;13.40;;;9.90;34.60;;;;;;5010784;28;20471;-58
2023/04/20 11:31:54;;;;;;;15.40;14.30;;;9.90;34.10;;;;;;5010672;28;20531;-58
2023/04/20 11:34:21;;;;;;;14.27;13.57;;;9.90;35.00;;;;;;5011445;28;20543;-58
2023/04/20 11:36:49;;;;;;;15.23;14.40;;;10.00;33.40;;;;;;5011615;28;20185;-58
2023/04/20 11:39:25;;;;;;;14.27;13.43;;;10.10;31.60;;;;;;5011518;28;20427;-59
2023/04/20 11:41:52;;;;;;;14.23;13.43;;;10.20;31.70;;;;;;5011326;28;20514;-58
2023/04/20 11:44:19;;;;;;;15.70;14.73;;;10.30;30.80;;;;;;5011008;28;20478;-56
2023/04/20 11:46:48;;;;;;;15.03;14.17;;;10.20;30.50;;;;;;5008384;28;20442;-57
2023/04/20 11:49:15;;;;;;;15.03;14.23;;;10.20;31.10;;;;;;5011166;28;20425;-57
2023/04/20 11:51:40;;;;;;;14.73;13.93;;;10.30;30.20;;;;;;5010587;28;20463;-57
2023/04/20 11:54:06;;;;;;;15.30;14.30;;;10.30;30.70;;;;;;5012565;28;20413;-58
2023/04/20 11:56:32;;;;;;;14.20;13.40;;;10.40;30.50;;;;;;5010430;28;20626;-57
2023/04/20 11:58:57;;;;;;;15.53;14.50;;;10.40;30.90;;;;;;5011470;28;20181;-57
2023/04/20 12:01:23;;;;;;;17.10;16.10;;;10.50;30.70;;;;;;5010709;28;20196;-58
2023/04/20 12:03:48;;;;;;;14.33;13.60;;;10.50;30.60;;;;;;5010990;28;20567;-57
2023/04/20 12:06:14;;;;;;;15.40;14.50;;;10.60;30.80;;;;;;5011100;28;20189;-57
2023/04/20 12:08:41;;;;;;;16.47;15.50;;;10.60;30.30;;;;;;5011182;28;20216;-60
2023/04/20 12:11:07;;;;;;;17.00;16.10;;;10.70;30.00;;;;;;5010583;28;20308;-61
2023/04/20 12:13:33;;;;;;;16.20;15.30;;;10.70;29.80;;;;;;5011276;28;20495;-61
2023/04/20 12:15:58;;;;;;;17.37;16.10;;;10.70;30.00;;;;;;5010947;28;20173;-60
2023/04/20 12:18:24;;;;;;;18.07;16.97;;;10.60;31.00;;;;;;5010995;28;20272;-61
2023/04/20 12:20:50;;;;;;;18.20;16.80;;;10.60;31.40;;;;;;5011171;28;20276;-60
2023/04/20 12:23:16;;;;;;;17.27;16.17;;;10.60;32.00;;;;;;5013743;28;20541;-61
2023/04/20 12:25:42;;;;;;;18.17;16.97;;;10.50;31.90;;;;;;5014158;28;20427;-61
2023/04/20 12:28:07;;;;;;;17.10;16.10;;;10.40;31.80;;;;;;5014767;28;20284;-61
2023/04/20 12:30:36;;;;;;;15.93;15.03;;;10.30;31.70;;;;;;5014722;28;20486;-60
2023/04/20 12:33:03;;;;;;;17.73;16.57;;;10.30;32.80;;;;;;5014141;28;20194;-61